createdAt,value
2023-04-06T00:01:27.698Z,2.57
2023-04-06T00:03:55.030Z,2.52
2023-04-06T00:06:22.975Z,2.49
2023-04-06T00:08:50.597Z,2.46
2023-04-06T00:11:18.091Z,2.44
2023-04-06T00:13:46.477Z,2.42
2023-04-06T00:16:13.825Z,2.41
2023-04-06T00:18:41.389Z,2.41
2023-04-06T00:21:08.692Z,2.41
2023-04-06T00:23:36.193Z,2.38
2023-04-06T00:26:03.653Z,2.38
2023-04-06T00:28:37.048Z,2.37
2023-04-06T00:31:04.711Z,2.36
2023-04-06T00:33:32.173Z,2.33
2023-04-06T00:35:59.448Z,2.32
2023-04-06T00:38:28.055Z,2.29
2023-04-06T00:40:56.536Z,2.28
2023-04-06T00:43:25.506Z,2.24
2023-04-06T00:45:53.520Z,2.23
2023-04-06T00:48:21.172Z,2.20
2023-04-06T00:50:48.824Z,2.18
2023-04-06T00:53:16.430Z,2.15
2023-04-06T00:55:44.000Z,2.13
2023-04-06T00:58:12.244Z,2.10
2023-04-06T01:00:48.241Z,2.08
2023-04-06T01:03:19.050Z,2.06
2023-04-06T01:05:47.946Z,2.02
2023-04-06T01:08:23.494Z,2.01
2023-04-06T01:10:54.799Z,1.97
2023-04-06T01:13:26.433Z,1.97
2023-04-06T01:16:01.238Z,1.94
2023-04-06T01:18:36.233Z,1.92
2023-04-06T01:21:16.786Z,1.87
2023-04-06T01:24:01.191Z,1.83
2023-04-06T01:26:37.035Z,1.81
2023-04-06T01:29:11.394Z,1.77
2023-04-06T01:31:40.567Z,1.74
2023-04-06T01:34:08.420Z,1.72
2023-04-06T01:36:36.012Z,1.72
2023-04-06T01:39:18.705Z,1.70
2023-04-06T01:41:48.222Z,1.69
2023-04-06T01:44:20.763Z,1.67
2023-04-06T01:47:01.795Z,1.67
2023-04-06T01:49:29.212Z,1.65
2023-04-06T01:51:57.554Z,1.62
2023-04-06T01:54:25.008Z,1.60
2023-04-06T01:57:15.028Z,1.57
2023-04-06T01:59:48.093Z,1.57
2023-04-06T02:02:34.333Z,1.56
2023-04-06T02:05:08.549Z,1.56
2023-04-06T02:07:37.270Z,1.53
2023-04-06T02:10:05.476Z,1.51
2023-04-06T02:12:38.236Z,1.49
2023-04-06T02:15:09.307Z,1.47
2023-04-06T02:17:36.754Z,1.45
2023-04-06T02:20:04.390Z,1.44
2023-04-06T02:22:31.757Z,1.40
2023-04-06T02:25:00.217Z,1.38
2023-04-06T02:27:29.539Z,1.34
2023-04-06T02:29:56.941Z,1.34
2023-04-06T02:32:25.062Z,1.35
2023-04-06T02:34:52.921Z,1.36
2023-04-06T02:37:23.113Z,1.36
2023-04-06T02:39:51.851Z,1.35
2023-04-06T02:42:19.426Z,1.34
2023-04-06T02:44:49.212Z,1.30
2023-04-06T02:47:18.192Z,1.28
2023-04-06T02:49:48.892Z,1.24
2023-04-06T02:52:19.140Z,1.20
2023-04-06T02:54:47.491Z,1.18
2023-04-06T02:57:21.730Z,1.13
2023-04-06T02:59:49.052Z,1.11
2023-04-06T03:02:21.921Z,1.09
2023-04-06T03:04:49.894Z,1.07
2023-04-06T03:07:29.548Z,1.07
2023-04-06T03:09:56.896Z,1.05
2023-04-06T03:12:24.175Z,1.04
2023-04-06T03:15:11.960Z,1.02
2023-04-06T03:17:43.022Z,1.02
2023-04-06T03:20:17.523Z,1.02
2023-04-06T03:22:46.059Z,1.03
2023-04-06T03:25:16.397Z,1.04
2023-04-06T03:27:45.911Z,1.03
2023-04-06T03:30:18.699Z,1.04
2023-04-06T03:32:46.245Z,1.06
2023-04-06T03:35:13.647Z,1.08
2023-04-06T03:37:41.012Z,1.05
2023-04-06T03:40:08.650Z,1.07
2023-04-06T03:42:36.648Z,1.07
2023-04-06T03:45:10.732Z,1.05
2023-04-06T03:47:44.847Z,1.03
2023-04-06T03:50:13.247Z,1.02
2023-04-06T03:52:40.981Z,0.99
2023-04-06T03:55:08.975Z,0.99
2023-04-06T03:57:38.633Z,0.95
2023-04-06T04:00:07.043Z,0.94
2023-04-06T04:02:40.424Z,0.92
2023-04-06T04:05:08.514Z,0.91
2023-04-06T04:07:37.960Z,0.89
2023-04-06T04:10:07.702Z,0.87
2023-04-06T04:12:35.038Z,0.86
2023-04-06T04:15:02.566Z,0.84
2023-04-06T04:17:31.859Z,0.82
2023-04-06T04:20:03.884Z,0.83
2023-04-06T04:22:31.572Z,0.84
2023-04-06T04:25:00.493Z,0.85
2023-04-06T04:27:30.878Z,0.83
2023-04-06T04:29:58.872Z,0.83
2023-04-06T04:32:28.541Z,0.84
2023-04-06T04:34:58.906Z,0.85
2023-04-06T04:37:36.271Z,0.84
2023-04-06T04:40:05.008Z,0.87
2023-04-06T04:42:41.288Z,0.87
2023-04-06T04:45:13.917Z,0.87
2023-04-06T04:47:42.760Z,0.88
2023-04-06T04:50:12.520Z,0.86
2023-04-06T04:52:43.371Z,0.86
2023-04-06T04:55:15.657Z,0.87
2023-04-06T04:57:46.366Z,0.87
2023-04-06T05:00:14.810Z,0.87
2023-04-06T05:02:47.986Z,0.89
2023-04-06T05:05:27.310Z,0.91
2023-04-06T05:07:55.300Z,0.92
2023-04-06T05:10:42.261Z,0.92
2023-04-06T05:13:10.053Z,0.95
2023-04-06T05:15:39.332Z,0.96
2023-04-06T05:18:15.059Z,0.96
2023-04-06T05:20:43.857Z,1.00
2023-04-06T05:23:12.374Z,1.03
2023-04-06T05:25:40.046Z,1.04
2023-04-06T05:28:19.333Z,1.08
2023-04-06T05:30:47.385Z,1.12
2023-04-06T05:33:16.358Z,1.16
2023-04-06T05:36:04.828Z,1.21
2023-04-06T05:38:34.377Z,1.24
2023-04-06T05:41:10.070Z,1.28
2023-04-06T05:43:38.321Z,1.30
2023-04-06T05:46:05.716Z,1.35
2023-04-06T05:48:33.671Z,1.41
2023-04-06T05:51:03.446Z,1.46
2023-04-06T05:53:40.160Z,1.52
2023-04-06T05:56:10.020Z,1.58
2023-04-06T05:58:37.324Z,1.60
2023-04-06T06:01:06.381Z,1.65
2023-04-06T06:03:41.141Z,1.69
2023-04-06T06:06:08.602Z,1.72
2023-04-06T06:08:50.107Z,1.78
2023-04-06T06:11:18.960Z,1.84
2023-04-06T06:13:49.484Z,1.90
2023-04-06T06:16:18.671Z,1.93
2023-04-06T06:18:48.155Z,2.01
2023-04-06T06:21:16.350Z,2.07
2023-04-06T06:23:44.128Z,2.13
2023-04-06T06:26:15.409Z,2.20
2023-04-06T06:28:42.818Z,2.28
2023-04-06T06:31:15.246Z,2.33
2023-04-06T06:33:44.056Z,2.42
2023-04-06T06:36:11.391Z,2.49
2023-04-06T06:38:39.923Z,2.64
2023-04-06T06:41:07.464Z,2.85
2023-04-06T06:43:36.846Z,3.11
2023-04-06T06:46:08.436Z,3.49
2023-04-06T06:48:36.972Z,3.96
2023-04-06T06:51:04.956Z,4.32
2023-04-06T06:53:32.609Z,4.65
2023-04-06T06:55:59.944Z,5.12
2023-04-06T06:58:27.890Z,5.47
2023-04-06T07:00:59.354Z,5.60
2023-04-06T07:03:28.192Z,5.72
2023-04-06T07:05:56.792Z,6.03
2023-04-06T07:08:26.135Z,6.37
2023-04-06T07:10:54.252Z,6.55
2023-04-06T07:13:25.126Z,6.56
2023-04-06T07:15:56.136Z,6.44
2023-04-06T07:18:24.255Z,6.30
2023-04-06T07:20:51.846Z,6.19
2023-04-06T07:23:19.540Z,6.12
2023-04-06T07:25:48.524Z,6.07
2023-04-06T07:28:16.596Z,6.04
2023-04-06T07:30:44.936Z,6.11
2023-04-06T07:33:13.524Z,6.25
2023-04-06T07:35:42.668Z,6.31
2023-04-06T07:38:11.788Z,6.39
2023-04-06T07:40:40.933Z,6.60
2023-04-06T07:43:08.377Z,6.78
2023-04-06T07:45:36.790Z,6.97
2023-04-06T07:48:04.300Z,7.14
2023-04-06T07:50:33.098Z,7.28
2023-04-06T07:53:01.808Z,7.32
2023-04-06T07:55:31.010Z,7.37
2023-04-06T07:57:58.862Z,7.44
2023-04-06T08:00:26.367Z,7.52
2023-04-06T08:02:53.770Z,7.59
2023-04-06T08:05:21.586Z,7.67
2023-04-06T08:07:49.138Z,7.77
2023-04-06T08:10:16.644Z,7.84
2023-04-06T08:12:43.915Z,7.93
2023-04-06T08:15:11.656Z,8.03
2023-04-06T08:17:38.950Z,8.11
2023-04-06T08:20:06.857Z,8.22
2023-04-06T08:22:34.454Z,8.45
2023-04-06T08:25:01.899Z,8.66
2023-04-06T08:27:29.436Z,8.85
2023-04-06T08:29:56.788Z,9.08
2023-04-06T08:32:24.264Z,9.28
2023-04-06T08:34:54.931Z,9.49
2023-04-06T08:37:23.336Z,9.69
2023-04-06T08:39:50.662Z,9.91
2023-04-06T08:42:21.637Z,10.10
2023-04-06T08:44:50.549Z,10.32
2023-04-06T08:47:17.851Z,10.50
2023-04-06T08:49:46.753Z,10.47
2023-04-06T08:52:15.846Z,10.58
2023-04-06T08:54:46.148Z,10.62
2023-04-06T08:57:14.273Z,10.57
2023-04-06T08:59:42.223Z,10.59
2023-04-06T09:02:16.775Z,10.68
2023-04-06T09:04:46.930Z,10.66
2023-04-06T09:07:16.853Z,10.73
2023-04-06T09:09:48.719Z,10.75
2023-04-06T09:12:30.113Z,10.77
2023-04-06T09:14:58.580Z,10.84
2023-04-06T09:17:28.142Z,10.87
2023-04-06T09:19:56.098Z,10.80
2023-04-06T09:22:24.140Z,10.71
2023-04-06T09:24:54.319Z,10.62
2023-04-06T09:27:35.840Z,10.54
2023-04-06T09:30:22.364Z,10.58
2023-04-06T09:32:51.827Z,10.61
2023-04-06T09:35:21.217Z,10.64
2023-04-06T09:37:49.840Z,10.61
2023-04-06T09:40:18.857Z,10.64
2023-04-06T09:42:47.853Z,10.64
2023-04-06T09:45:17.099Z,10.67
2023-04-06T09:47:46.512Z,10.64
2023-04-06T09:50:15.792Z,10.62
2023-04-06T09:52:45.963Z,10.67
2023-04-06T09:55:17.833Z,10.78
2023-04-06T09:58:03.003Z,10.81
2023-04-06T10:00:33.301Z,10.81
2023-04-06T10:03:12.754Z,10.82
2023-04-06T10:06:03.123Z,10.89
2023-04-06T10:08:33.626Z,10.95
2023-04-06T10:11:01.875Z,10.95
2023-04-06T10:13:29.828Z,10.97
2023-04-06T10:16:01.485Z,11.03
2023-04-06T10:18:29.092Z,11.07
2023-04-06T10:21:10.520Z,11.12
2023-04-06T10:23:53.245Z,11.08
2023-04-06T10:26:23.626Z,11.04
2023-04-06T10:28:52.196Z,11.00
2023-04-06T10:31:28.538Z,10.97
2023-04-06T10:34:01.256Z,10.93
2023-04-06T10:36:34.737Z,10.99
2023-04-06T10:39:04.957Z,11.02
2023-04-06T10:41:42.009Z,11.03
2023-04-06T10:44:17.907Z,11.05
2023-04-06T10:47:02.997Z,11.05
2023-04-06T10:49:31.667Z,11.08
2023-04-06T10:51:59.472Z,11.18
2023-04-06T10:54:29.357Z,11.26
2023-04-06T10:56:57.618Z,11.36
2023-04-06T10:59:26.392Z,11.42
2023-04-06T11:01:56.100Z,11.51
2023-04-06T11:04:24.579Z,11.59
2023-04-06T11:06:52.087Z,11.62
2023-04-06T11:09:32.584Z,11.68
2023-04-06T11:12:00.062Z,11.71
2023-04-06T11:14:27.902Z,11.74
2023-04-06T11:16:56.346Z,11.77
2023-04-06T11:19:24.210Z,11.80
2023-04-06T11:21:51.647Z,11.84
2023-04-06T11:24:20.473Z,11.87
2023-04-06T11:26:57.001Z,11.87
2023-04-06T11:29:32.706Z,11.87
2023-04-06T11:32:02.170Z,11.92
2023-04-06T11:34:31.744Z,11.95
2023-04-06T11:37:07.636Z,11.99
2023-04-06T11:39:53.283Z,12.06
2023-04-06T11:42:24.747Z,12.13
2023-04-06T11:44:54.816Z,12.19
2023-04-06T11:47:31.826Z,12.28
2023-04-06T11:50:10.744Z,12.40
2023-04-06T11:52:39.557Z,12.52
2023-04-06T11:55:16.087Z,12.62
2023-04-06T11:57:45.327Z,12.73
2023-04-06T12:00:13.373Z,12.81
2023-04-06T12:02:41.364Z,12.83
2023-04-06T12:05:09.712Z,12.86
2023-04-06T12:07:37.374Z,12.81
2023-04-06T12:10:05.310Z,12.79
2023-04-06T12:12:33.032Z,12.76
2023-04-06T12:15:01.057Z,12.79
2023-04-06T12:17:28.513Z,12.84
2023-04-06T12:20:01.808Z,12.87
2023-04-06T12:22:32.349Z,12.93
2023-04-06T12:25:00.243Z,13.05
2023-04-06T12:27:28.008Z,13.14
2023-04-06T12:29:56.643Z,13.26
2023-04-06T12:32:30.409Z,13.36
2023-04-06T12:34:57.757Z,13.40
2023-04-06T12:37:25.980Z,13.41
2023-04-06T12:39:53.773Z,13.43
2023-04-06T12:42:22.088Z,13.40
2023-04-06T12:44:49.672Z,13.39
2023-04-06T12:47:17.304Z,13.32
2023-04-06T12:49:44.901Z,13.27
2023-04-06T12:52:12.278Z,13.31
2023-04-06T12:54:39.587Z,13.35
2023-04-06T12:57:06.930Z,13.37
2023-04-06T12:59:36.905Z,13.37
2023-04-06T13:02:06.200Z,13.30
2023-04-06T13:04:34.049Z,13.21
2023-04-06T13:07:01.453Z,13.13
2023-04-06T13:09:29.005Z,13.06
2023-04-06T13:11:56.819Z,13.00
2023-04-06T13:14:24.157Z,12.96
2023-04-06T13:16:52.313Z,12.95
2023-04-06T13:19:19.760Z,12.91
2023-04-06T13:21:47.137Z,12.90
2023-04-06T13:24:16.590Z,12.90
2023-04-06T13:26:45.214Z,12.87
2023-04-06T13:29:12.553Z,12.90
2023-04-06T13:31:45.280Z,12.94
2023-04-06T13:34:12.849Z,13.00
2023-04-06T13:36:43.215Z,13.05
2023-04-06T13:39:10.829Z,13.09
2023-04-06T13:41:41.250Z,13.11
2023-04-06T13:44:08.643Z,13.12
2023-04-06T13:46:36.069Z,13.11
2023-04-06T13:49:03.542Z,13.13
2023-04-06T13:51:31.851Z,13.12
2023-04-06T13:53:59.288Z,13.15
2023-04-06T13:56:27.608Z,13.13
2023-04-06T13:58:56.867Z,13.14
2023-04-06T14:01:25.046Z,13.13
2023-04-06T14:03:52.650Z,13.14
2023-04-06T14:06:30.964Z,13.15
2023-04-06T14:08:59.714Z,13.14
2023-04-06T14:11:28.038Z,13.12
2023-04-06T14:13:57.966Z,13.10
2023-04-06T14:16:26.008Z,13.07
2023-04-06T14:18:53.354Z,13.05
2023-04-06T14:21:21.136Z,13.02
2023-04-06T14:23:49.082Z,12.98
2023-04-06T14:26:16.420Z,12.94
2023-04-06T14:28:43.985Z,12.88
2023-04-06T14:31:14.578Z,12.82
2023-04-06T14:33:43.010Z,12.74
2023-04-06T14:36:11.366Z,12.71
2023-04-06T14:38:41.252Z,12.66
2023-04-06T14:41:11.652Z,12.62
2023-04-06T14:43:39.827Z,12.57
2023-04-06T14:46:09.411Z,12.52
2023-04-06T14:48:37.836Z,12.47
2023-04-06T14:51:05.106Z,12.48
2023-04-06T14:53:32.994Z,12.44
2023-04-06T14:56:00.724Z,12.40
2023-04-06T14:58:28.022Z,12.36
2023-04-06T15:01:01.630Z,12.34
2023-04-06T15:03:30.956Z,12.32
2023-04-06T15:05:59.398Z,12.30
2023-04-06T15:08:26.756Z,12.29
2023-04-06T15:10:55.775Z,12.28
2023-04-06T15:13:23.363Z,12.25
2023-04-06T15:15:52.291Z,12.23
2023-04-06T15:18:20.014Z,12.18
2023-04-06T15:20:47.312Z,12.16
2023-04-06T15:23:14.799Z,12.12
2023-04-06T15:25:42.470Z,12.11
2023-04-06T15:28:09.815Z,12.07
2023-04-06T15:30:37.587Z,12.05
2023-04-06T15:33:06.519Z,11.97
2023-04-06T15:35:35.378Z,11.94
2023-04-06T15:38:03.681Z,11.89
2023-04-06T15:40:31.405Z,11.84
2023-04-06T15:42:59.541Z,11.78
2023-04-06T15:45:27.414Z,11.73
2023-04-06T15:47:54.758Z,11.70
2023-04-06T15:50:22.197Z,11.62
2023-04-06T15:52:49.517Z,11.56
2023-04-06T15:55:18.019Z,11.53
2023-04-06T15:57:45.400Z,11.46
2023-04-06T16:00:14.357Z,11.36
2023-04-06T16:02:41.742Z,11.30
2023-04-06T16:05:09.529Z,11.25
2023-04-06T16:07:36.792Z,11.21
2023-04-06T16:10:06.318Z,11.15
2023-04-06T16:12:36.507Z,11.05
2023-04-06T16:15:04.114Z,10.92
2023-04-06T16:17:32.095Z,10.85
2023-04-06T16:19:59.379Z,10.78
2023-04-06T16:22:28.687Z,10.66
2023-04-06T16:24:56.073Z,10.59
2023-04-06T16:27:24.005Z,10.52
2023-04-06T16:29:51.729Z,10.48
2023-04-06T16:32:19.050Z,10.39
2023-04-06T16:34:47.422Z,10.34
2023-04-06T16:37:14.853Z,10.28
2023-04-06T16:39:42.211Z,10.23
2023-04-06T16:42:09.653Z,10.22
2023-04-06T16:44:36.978Z,10.19
2023-04-06T16:47:04.732Z,10.17
2023-04-06T16:49:32.206Z,10.14
2023-04-06T16:52:02.876Z,10.13
2023-04-06T16:54:30.192Z,10.09
2023-04-06T16:56:57.838Z,10.05
2023-04-06T16:59:27.694Z,10.02
2023-04-06T17:01:55.451Z,9.99
2023-04-06T17:04:24.223Z,9.95
2023-04-06T17:06:52.245Z,9.90
2023-04-06T17:09:19.494Z,9.84
2023-04-06T17:11:47.244Z,9.76
2023-04-06T17:14:14.592Z,9.70
2023-04-06T17:16:41.968Z,9.64
2023-04-06T17:19:09.247Z,9.56
2023-04-06T17:21:36.703Z,9.48
2023-04-06T17:24:04.573Z,9.38
2023-04-06T17:26:31.827Z,9.29
2023-04-06T17:28:59.059Z,9.17
2023-04-06T17:31:26.466Z,9.10
2023-04-06T17:33:54.227Z,9.02
2023-04-06T17:36:22.022Z,8.96
2023-04-06T17:38:49.521Z,8.92
2023-04-06T17:41:16.832Z,8.88
2023-04-06T17:43:44.229Z,8.83
2023-04-06T17:46:11.711Z,8.78
2023-04-06T17:48:39.513Z,8.75
2023-04-06T17:51:06.851Z,8.70
2023-04-06T17:53:37.132Z,8.65
2023-04-06T17:56:05.144Z,8.61
2023-04-06T17:58:32.926Z,8.55
2023-04-06T18:01:06.966Z,8.52
2023-04-06T18:03:34.974Z,8.47
2023-04-06T18:06:16.170Z,8.39
2023-04-06T18:08:43.769Z,8.35
2023-04-06T18:11:18.259Z,8.30
2023-04-06T18:13:46.269Z,8.24
2023-04-06T18:16:14.634Z,8.19
2023-04-06T18:18:41.971Z,8.13
2023-04-06T18:21:09.377Z,8.10
2023-04-06T18:23:37.774Z,8.04
2023-04-06T18:26:06.612Z,7.99
2023-04-06T18:28:34.228Z,7.95
2023-04-06T18:31:02.397Z,7.92
2023-04-06T18:33:30.291Z,7.88
2023-04-06T18:35:57.657Z,7.85
2023-04-06T18:38:24.895Z,7.84
2023-04-06T18:40:52.430Z,7.83
2023-04-06T18:43:19.775Z,7.82
2023-04-06T18:45:47.709Z,7.81
2023-04-06T18:48:16.239Z,7.80
2023-04-06T18:50:54.540Z,7.76
2023-04-06T18:53:21.880Z,7.75
2023-04-06T18:55:50.794Z,7.72
2023-04-06T18:58:18.034Z,7.69
2023-04-06T19:00:45.461Z,7.69
2023-04-06T19:03:12.999Z,7.67
2023-04-06T19:05:41.917Z,7.66
2023-04-06T19:08:09.630Z,7.63
2023-04-06T19:10:37.637Z,7.63
2023-04-06T19:13:05.566Z,7.63
2023-04-06T19:15:33.579Z,7.62
2023-04-06T19:18:00.823Z,7.61
2023-04-06T19:20:28.107Z,7.60
2023-04-06T19:25:22.580Z,7.59
2023-04-06T19:27:49.885Z,7.59
2023-04-06T19:30:17.205Z,7.58
2023-04-06T19:32:44.754Z,7.56
2023-04-06T19:35:12.205Z,7.53
2023-04-06T19:37:39.810Z,7.50
2023-04-06T19:40:10.851Z,7.49
2023-04-06T19:42:38.997Z,7.47
2023-04-06T19:45:06.670Z,7.44
2023-04-06T19:47:35.497Z,7.42
2023-04-06T19:50:04.541Z,7.42
2023-04-06T19:52:33.228Z,7.38
2023-04-06T19:55:00.847Z,7.36
2023-04-06T19:57:28.244Z,7.35
2023-04-06T19:59:56.432Z,7.35
2023-04-06T20:02:23.969Z,7.33
2023-04-06T20:04:51.493Z,7.32
2023-04-06T20:07:19.970Z,7.32
2023-04-06T20:09:47.246Z,7.31
2023-04-06T20:12:14.528Z,7.31
2023-04-06T20:14:41.933Z,7.29
2023-04-06T20:17:11.234Z,7.29
2023-04-06T20:19:38.736Z,7.28
2023-04-06T20:22:06.052Z,7.27
2023-04-06T20:24:33.307Z,7.26
2023-04-06T20:27:00.598Z,7.23
2023-04-06T20:29:28.026Z,7.23
2023-04-06T20:31:55.640Z,7.23
2023-04-06T20:34:26.299Z,7.21
2023-04-06T20:36:53.936Z,7.19
2023-04-06T20:39:21.872Z,7.19
2023-04-06T20:41:49.098Z,7.18
2023-04-06T20:44:18.994Z,7.17
2023-04-06T20:46:49.184Z,7.17
2023-04-06T20:49:17.496Z,7.13
2023-04-06T20:51:45.919Z,7.11
2023-04-06T20:54:13.178Z,7.09
2023-04-06T20:56:40.582Z,7.09
2023-04-06T20:59:07.941Z,7.06
2023-04-06T21:01:35.427Z,7.05
2023-04-06T21:04:05.977Z,7.06
2023-04-06T21:06:33.795Z,7.05
2023-04-06T21:09:01.695Z,7.05
2023-04-06T21:11:29.024Z,7.04
2023-04-06T21:13:57.159Z,7.04
2023-04-06T21:16:24.476Z,7.02
2023-04-06T21:18:51.888Z,7.02
2023-04-06T21:21:19.706Z,7.01
2023-04-06T21:23:47.297Z,7.00
2023-04-06T21:26:14.684Z,6.98
2023-04-06T21:28:41.928Z,6.99
2023-04-06T21:31:09.346Z,6.98
2023-04-06T21:33:36.699Z,6.98
2023-04-06T21:36:08.279Z,6.98
2023-04-06T21:38:35.724Z,6.95
2023-04-06T21:41:03.303Z,6.96
2023-04-06T21:43:30.703Z,6.94
2023-04-06T21:45:58.157Z,6.93
2023-04-06T21:48:25.438Z,6.91
2023-04-06T21:50:52.698Z,6.90
2023-04-06T21:53:20.160Z,6.88
2023-04-06T21:55:48.106Z,6.90
2023-04-06T21:58:15.982Z,6.89
2023-04-06T22:00:43.629Z,6.88
2023-04-06T22:03:11.322Z,6.87
2023-04-06T22:05:38.794Z,6.87
2023-04-06T22:08:06.257Z,6.88
2023-04-06T22:10:33.637Z,6.82
2023-04-06T22:13:00.957Z,6.83
2023-04-06T22:15:28.477Z,6.82
2023-04-06T22:17:55.802Z,6.84
2023-04-06T22:20:23.204Z,6.82
2023-04-06T22:22:50.573Z,6.81
2023-04-06T22:25:18.045Z,6.82
2023-04-06T22:27:45.668Z,6.82
2023-04-06T22:30:13.296Z,6.81
2023-04-06T22:32:40.920Z,6.81
2023-04-06T22:35:08.891Z,6.80
2023-04-06T22:37:36.134Z,6.78
2023-04-06T22:40:03.605Z,6.75
2023-04-06T22:42:31.110Z,6.75
2023-04-06T22:44:58.488Z,6.75
2023-04-06T22:47:26.028Z,6.77
2023-04-06T22:49:53.450Z,6.78
2023-04-06T22:52:20.834Z,6.79
2023-04-06T22:54:48.233Z,6.80
2023-04-06T22:57:16.060Z,6.81
2023-04-06T22:59:43.495Z,6.82
2023-04-06T23:02:11.214Z,6.82
2023-04-06T23:04:38.583Z,6.82
2023-04-06T23:07:06.075Z,6.82
2023-04-06T23:09:33.487Z,6.81
2023-04-06T23:12:01.112Z,6.82
2023-04-06T23:14:28.357Z,6.82
2023-04-06T23:16:56.037Z,6.82
2023-04-06T23:19:23.386Z,6.82
2023-04-06T23:21:51.005Z,6.83
2023-04-06T23:24:18.224Z,6.82
2023-04-06T23:26:45.798Z,6.81
2023-04-06T23:29:13.029Z,6.80
2023-04-06T23:31:40.340Z,6.79
2023-04-06T23:34:10.700Z,6.78
2023-04-06T23:36:38.125Z,6.76
2023-04-06T23:39:05.844Z,6.75
2023-04-06T23:41:33.294Z,6.75
2023-04-06T23:44:00.755Z,6.75
2023-04-06T23:46:28.251Z,6.74
2023-04-06T23:48:55.560Z,6.73
2023-04-06T23:51:22.888Z,6.73
2023-04-06T23:53:50.081Z,6.72
2023-04-06T23:56:17.348Z,6.70
2023-04-06T23:58:44.629Z,6.67
